Aeroporto :
LOGIN :

Iscrizione | Disclaimer

   EN    FR    IT 

 










Sommario :    VFR   VFR Marginale   IFR   IFR Intensivo   IFR Molto Intensivo
Visibilità : 
Base nubi : 
>= 8 km
>= 3000ft
5 / 8 km
1000 / 3000 ft
1500m / 5 km
500 / 1000 ft
800 / 1500m
200 / 500 ft
< 800m
< 200 ft
Simboli :   Temporali  Nebbia  Neve Forte  Precipitazioni Forti  Vento > 20 kt
SIGMETs :   Varie  Temporali  Ghiacco  Turbolenza  Onda orograficha  Ceneri Vulcaniche






- Altitudine del aeroporto : 42 ft
- Codice IATA : LMO


EGQS - Lossiemouth

ULTIMO METAR :
  • 260920Z 20004KT 9999 MIFG FEW025 BKN040 00/00 Q1019 NOSIG RMK BLU BLU

METARs OBSOLETI :
  • 260859Z 18004KT 0400 FG FEW020 SCT030 01/01 Q1019 BECMG 9999 NSW RMK RED BECMG BLU
  • 260820Z 25003KT 9999 0400S BCFG FEW020 M00/M01 Q1018 BECMG 9999 NSW RMK RED BECMG BLU
  • 260809Z 23004KT 9999 0400NW BCFG FEW020 M00/M01 Q1018 BECMG NSW RMK RED BECMG BLU
  • 260750Z 22003KT 9999 MIFG FEW020 01/01 Q1018 NOSIG RMK BLU BLU
  • 260650Z 24004KT 9999 SCT032 02/01 Q1018 NOSIG RMK BLU BLU

TAF AMD TAF EGQS
Valido dal 26 a 09 ore il 27 a 03 ore UTC


260856Z 2609/2703 22005KT 9999 FEW018 SCT030
PROB40 2609/2610 0600 FG SCT000



MetMap, La meteo Aeronautica in un colpo d'occhio ! - Copyright ORBIFLY Dicembre 2007 - Disclaimer

ORBIFLY MET'MAP TEAM :

Programmazione e sviluppo : Alexandra Zaïnal
Concezione : Baudouin d'Aumeries
Aiuto per la programmazione : Marc-Olivier Méhu
Supporto tecnico e logistico : Manuel Goepfert
Aiuto per la traduzione : Arnaldo La Scala

Contatto : metmap@orbifly.com




FONTI E CREDITI :

   NOAA